Time,TemperatureF,DewpointF,PressureIn,WindDirection,WindDirectionDegrees,WindSpeedMPH,WindSpeedGustMPH,Humidity,HourlyPrecipIn,Conditions,Clouds,dailyrainin,SoftwareType,DateUTC
2013-07-21 00:00:00,68.5,64.1,29.86,SSW,194,4.0,6.0,86,0.00,,,0.53,Wunderground v.1.15,2013-07-21 05:00:00,
2013-07-21 00:10:00,68.3,63.9,29.86,South,190,5.0,8.0,86,0.00,,,0.53,Wunderground v.1.15,2013-07-21 05:10:00,
2013-07-21 00:20:00,68.4,63.7,29.85,South,177,7.0,7.0,85,0.00,,,0.53,Wunderground v.1.15,2013-07-21 05:20:00,
2013-07-21 00:30:00,68.9,63.5,29.83,South,174,7.0,8.0,83,0.00,,,0.53,Wunderground v.1.15,2013-07-21 05:30:00,
2013-07-21 00:40:00,69.3,63.6,29.82,ESE,105,6.0,6.0,82,0.00,,,0.53,Wunderground v.1.15,2013-07-21 05:40:00,
2013-07-21 00:50:00,69.4,63.7,29.84,South,190,2.0,2.0,82,0.00,,,0.53,Wunderground v.1.15,2013-07-21 05:50:00,
2013-07-21 01:00:00,69.4,63.7,29.85,SE,129,1.0,1.0,82,0.00,,,0.53,Wunderground v.1.15,2013-07-21 06:00:00,
2013-07-21 01:10:00,69.3,63.6,29.87,SE,129,0.0,8.0,82,0.00,,,0.00,Wunderground v.1.15,2013-07-21 06:10:00,
2013-07-21 01:20:00,69.0,63.6,29.87,North,360,2.0,8.0,83,0.00,,,0.00,Wunderground v.1.15,2013-07-21 06:20:00,
2013-07-21 01:30:00,68.5,63.5,29.90,NNE,22,5.0,8.0,84,0.00,,,0.00,Wunderground v.1.15,2013-07-21 06:30:00,
2013-07-21 01:35:00,68.6,63.6,29.89,North,349,4.0,8.0,84,0.00,,,0.00,Wunderground v.1.15,2013-07-21 06:35:00,
2013-07-21 01:45:00,68.8,63.8,29.89,NNE,30,2.0,8.0,84,0.00,,,0.00,Wunderground v.1.15,2013-07-21 06:45:00,
2013-07-21 01:55:00,68.0,62.3,29.88,East,84,4.0,8.0,82,0.00,,,0.00,Wunderground v.1.15,2013-07-21 06:55:00,
2013-07-21 02:05:00,66.5,60.8,29.85,East,87,8.0,10.0,82,0.00,,,0.00,Wunderground v.1.15,2013-07-21 07:05:00,
2013-07-21 02:10:00,66.3,61.0,29.84,ESE,103,7.0,7.0,83,0.00,,,0.00,Wunderground v.1.15,2013-07-21 07:10:00,
2013-07-21 02:20:00,65.9,60.9,29.84,ENE,71,9.0,12.0,84,0.00,,,0.00,Wunderground v.1.15,2013-07-21 07:20:00,
2013-07-21 02:30:00,65.4,60.8,29.82,East,87,9.0,12.0,85,0.00,,,0.00,Wunderground v.1.15,2013-07-21 07:30:00,
2013-07-21 02:40:00,65.3,61.0,29.82,East,89,8.0,10.0,86,0.00,,,0.00,Wunderground v.1.15,2013-07-21 07:40:00,
2013-07-21 02:45:00,65.3,61.0,29.82,East,86,8.0,10.0,86,0.00,,,0.00,Wunderground v.1.15,2013-07-21 07:45:00,
2013-07-21 02:55:00,65.3,61.3,29.82,East,80,7.0,8.0,87,0.00,,,0.00,Wunderground v.1.15,2013-07-21 07:55:00,
2013-07-21 03:00:00,65.2,61.2,29.81,East,87,6.0,6.0,87,0.00,,,0.00,Wunderground v.1.15,2013-07-21 08:00:00,
2013-07-21 03:10:00,64.9,60.9,29.81,ENE,78,7.0,8.0,87,0.00,,,0.00,Wunderground v.1.15,2013-07-21 08:10:00,
2013-07-21 03:20:00,64.7,61.1,29.81,East,86,7.0,7.0,88,0.00,,,0.00,Wunderground v.1.15,2013-07-21 08:20:00,
2013-07-21 03:30:00,64.7,61.1,29.81,East,101,6.0,8.0,88,0.00,,,0.00,Wunderground v.1.15,2013-07-21 08:30:00,
2013-07-21 03:40:00,64.6,61.3,29.81,East,92,5.0,8.0,89,0.00,,,0.00,Wunderground v.1.15,2013-07-21 08:40:00,
2013-07-21 03:45:00,64.8,61.5,29.81,ENE,65,5.0,8.0,89,0.00,,,0.00,Wunderground v.1.15,2013-07-21 08:45:00,
2013-07-21 03:55:00,64.9,61.6,29.80,East,84,5.0,8.0,89,0.00,,,0.00,Wunderground v.1.15,2013-07-21 08:55:00,
2013-07-21 04:00:00,64.9,61.6,29.79,ESE,108,5.0,5.0,89,0.00,,,0.00,Wunderground v.1.15,2013-07-21 09:00:00,
2013-07-21 04:10:00,65.0,61.7,29.80,East,90,5.0,8.0,89,0.00,,,0.00,Wunderground v.1.15,2013-07-21 09:10:00,
2013-07-21 04:20:00,65.1,61.8,29.80,East,96,5.0,5.0,89,0.00,,,0.00,Wunderground v.1.15,2013-07-21 09:20:00,
2013-07-21 04:30:00,64.9,61.6,29.81,East,96,2.0,8.0,89,0.00,,,0.00,Wunderground v.1.15,2013-07-21 09:30:00,
2013-07-21 04:40:00,64.6,61.3,29.81,East,96,2.0,2.0,89,0.00,,,0.00,Wunderground v.1.15,2013-07-21 09:40:00,
2013-07-21 04:45:00,64.5,60.9,29.81,East,96,1.0,8.0,88,0.00,,,0.00,Wunderground v.1.15,2013-07-21 09:45:00,
2013-07-21 04:55:00,64.3,61.0,29.81,East,96,0.0,8.0,89,0.00,,,0.00,Wunderground v.1.15,2013-07-21 09:55:00,
2013-07-21 05:00:00,64.2,60.9,29.82,East,96,0.0,8.0,89,0.00,,,0.00,Wunderground v.1.15,2013-07-21 10:00:00,
2013-07-21 05:10:00,63.9,60.6,29.81,East,96,0.0,8.0,89,0.00,,,0.00,Wunderground v.1.15,2013-07-21 10:10:00,
2013-07-21 05:20:00,63.5,60.2,29.82,East,96,0.0,8.0,89,0.00,,,0.00,Wunderground v.1.15,2013-07-21 10:20:00,
2013-07-21 05:30:00,63.4,60.1,29.82,East,96,0.0,8.0,89,0.00,,,0.00,Wunderground v.1.15,2013-07-21 10:30:00,
2013-07-21 05:40:00,63.4,60.1,29.82,East,96,1.0,1.0,89,0.00,,,0.00,Wunderground v.1.15,2013-07-21 10:40:00,
2013-07-21 05:45:00,63.3,60.0,29.82,East,96,0.0,8.0,89,0.00,,,0.00,Wunderground v.1.15,2013-07-21 10:45:00,
2013-07-21 05:55:00,63.3,60.3,29.81,East,96,0.0,8.0,90,0.00,,,0.00,Wunderground v.1.15,2013-07-21 10:55:00,
2013-07-21 06:00:00,63.3,60.0,29.81,East,96,0.0,0.0,89,0.00,,,0.00,Wunderground v.1.15,2013-07-21 11:00:00,
2013-07-21 06:10:00,63.4,60.4,29.82,East,96,0.0,4.0,90,0.00,,,0.00,Wunderground v.1.15,2013-07-21 11:10:00,
2013-07-21 06:20:00,63.4,60.1,29.82,East,96,0.0,4.0,89,0.00,,,0.00,Wunderground v.1.15,2013-07-21 11:20:00,
2013-07-21 06:30:00,63.4,60.4,29.82,East,96,0.0,4.0,90,0.00,,,0.00,Wunderground v.1.15,2013-07-21 11:30:00,
2013-07-21 06:40:00,63.3,60.3,29.82,East,96,0.0,4.0,90,0.00,,,0.00,Wunderground v.1.15,2013-07-21 11:40:00,
2013-07-21 06:50:00,63.4,60.4,29.82,East,96,0.0,4.0,90,0.00,,,0.00,Wunderground v.1.15,2013-07-21 11:50:00,
2013-07-21 06:55:00,63.5,60.5,29.83,East,96,0.0,4.0,90,0.00,,,0.00,Wunderground v.1.15,2013-07-21 11:55:00,
2013-07-21 07:00:00,63.6,60.6,29.83,East,96,2.0,4.0,90,0.00,,,0.00,Wunderground v.1.15,2013-07-21 12:00:00,
2013-07-21 07:10:00,64.1,61.1,29.84,WSW,258,4.0,4.0,90,0.00,,,0.00,Wunderground v.1.15,2013-07-21 12:10:00,
2013-07-21 07:20:00,64.4,61.4,29.84,SW,236,4.0,4.0,90,0.00,,,0.00,Wunderground v.1.15,2013-07-21 12:20:00,
2013-07-21 07:30:00,64.5,61.5,29.84,SW,226,3.0,3.0,90,0.00,,,0.00,Wunderground v.1.15,2013-07-21 12:30:00,
2013-07-21 07:40:00,64.6,61.6,29.83,SW,226,2.0,2.0,90,0.00,,,0.00,Wunderground v.1.15,2013-07-21 12:40:00,
2013-07-21 07:45:00,64.7,61.7,29.83,SW,226,1.0,4.0,90,0.00,,,0.00,Wunderground v.1.15,2013-07-21 12:45:00,
2013-07-21 07:55:00,65.0,62.3,29.83,SW,226,0.0,4.0,91,0.00,,,0.00,Wunderground v.1.15,2013-07-21 12:55:00,
2013-07-21 08:00:00,65.3,62.6,29.84,WSW,252,0.0,4.0,91,0.00,,,0.00,Wunderground v.1.15,2013-07-21 13:00:00,
2013-07-21 08:10:00,65.6,62.9,29.85,WSW,257,3.0,3.0,91,0.00,,,0.00,Wunderground v.1.15,2013-07-21 13:10:00,
2013-07-21 08:20:00,65.9,63.2,29.84,WSW,257,0.0,4.0,91,0.00,,,0.00,Wunderground v.1.15,2013-07-21 13:20:00,
2013-07-21 08:30:00,66.2,63.5,29.84,SSW,209,2.0,4.0,91,0.00,,,0.00,Wunderground v.1.15,2013-07-21 13:30:00,
2013-07-21 08:40:00,66.6,63.9,29.84,SSW,202,3.0,3.0,91,0.00,,,0.00,Wunderground v.1.15,2013-07-21 13:40:00,
2013-07-21 08:50:00,67.0,64.0,29.83,SSW,202,1.0,4.0,90,0.00,,,0.00,Wunderground v.1.15,2013-07-21 13:50:00,
2013-07-21 08:55:00,67.2,64.2,29.83,East,98,2.0,4.0,90,0.00,,,0.00,Wunderground v.1.15,2013-07-21 13:55:00,
2013-07-21 09:05:00,67.4,64.4,29.83,ESE,109,2.0,4.0,90,0.00,,,0.00,Wunderground v.1.15,2013-07-21 14:05:00,
2013-07-21 09:10:00,67.7,64.7,29.83,East,92,2.0,4.0,90,0.00,,,0.00,Wunderground v.1.15,2013-07-21 14:10:00,
2013-07-21 09:20:00,68.3,65.3,29.83,South,175,1.0,4.0,90,0.00,,,0.00,Wunderground v.1.15,2013-07-21 14:20:00,
2013-07-21 09:30:00,68.9,65.8,29.83,SSE,150,1.0,1.0,90,0.00,,,0.00,Wunderground v.1.15,2013-07-21 14:30:00,
2013-07-21 09:40:00,70.0,66.9,29.83,SSE,159,2.0,2.0,90,0.00,,,0.00,Wunderground v.1.15,2013-07-21 14:40:00,
2013-07-21 09:45:00,70.6,67.2,29.82,SSE,163,2.0,4.0,89,0.00,,,0.00,Wunderground v.1.15,2013-07-21 14:45:00,
2013-07-21 09:55:00,71.2,67.1,29.82,South,169,2.0,4.0,87,0.00,,,0.00,Wunderground v.1.15,2013-07-21 14:55:00,
2013-07-21 10:00:00,71.7,67.3,29.82,SSE,167,2.0,5.0,86,0.00,,,0.00,Wunderground v.1.15,2013-07-21 15:00:00,
2013-07-21 10:10:00,72.8,67.7,29.81,SE,144,4.0,4.0,84,0.00,,,0.00,Wunderground v.1.15,2013-07-21 15:10:00,
2013-07-21 10:20:00,74.1,67.9,29.81,SSE,165,3.0,3.0,81,0.00,,,0.00,Wunderground v.1.15,2013-07-21 15:20:00,
2013-07-21 10:30:00,75.0,68.0,29.81,SSE,149,2.0,2.0,79,0.00,,,0.00,Wunderground v.1.15,2013-07-21 15:30:00,
2013-07-21 10:40:00,75.2,67.1,29.81,ESE,123,3.0,4.0,76,0.00,,,0.00,Wunderground v.1.15,2013-07-21 15:40:00,
2013-07-21 10:45:00,75.5,67.4,29.81,ESE,117,3.0,4.0,76,0.00,,,0.00,Wunderground v.1.15,2013-07-21 15:45:00,
2013-07-21 10:55:00,76.9,68.4,29.81,ESE,116,2.0,5.0,75,0.00,,,0.00,Wunderground v.1.15,2013-07-21 15:55:00,
2013-07-21 11:05:00,77.8,67.2,29.81,SSE,166,2.0,4.0,70,0.00,,,0.00,Wunderground v.1.15,2013-07-21 16:05:00,
2013-07-21 11:10:00,77.5,67.4,29.81,South,185,3.0,3.0,71,0.00,,,0.00,Wunderground v.1.15,2013-07-21 16:10:00,
2013-07-21 11:20:00,78.2,68.0,29.81,East,88,3.0,4.0,71,0.00,,,0.00,Wunderground v.1.15,2013-07-21 16:20:00,
2013-07-21 11:30:00,78.9,68.3,29.81,SE,128,3.0,3.0,70,0.00,,,0.00,Wunderground v.1.15,2013-07-21 16:30:00,
2013-07-21 11:40:00,80.0,68.5,29.81,SSE,148,2.0,4.0,68,0.00,,,0.00,Wunderground v.1.15,2013-07-21 16:40:00,
2013-07-21 11:50:00,80.2,68.2,29.80,ESE,119,3.0,4.0,67,0.00,,,0.00,Wunderground v.1.15,2013-07-21 16:50:00,
2013-07-21 11:55:00,80.0,68.1,29.80,ESE,109,3.0,4.0,67,0.00,,,0.00,Wunderground v.1.15,2013-07-21 16:55:00,
2013-07-21 12:00:00,80.3,68.3,29.80,ESE,123,3.0,4.0,67,0.00,,,0.00,Wunderground v.1.15,2013-07-21 17:00:00,
2013-07-21 12:10:00,80.8,67.0,29.80,ESE,121,2.0,2.0,63,0.00,,,0.00,Wunderground v.1.15,2013-07-21 17:10:00,
2013-07-21 12:15:00,81.1,67.3,29.80,ESE,121,2.0,7.0,63,0.00,,,0.00,Wunderground v.1.15,2013-07-21 17:15:00,
2013-07-21 12:20:00,81.5,67.7,29.80,ESE,121,2.0,2.0,63,0.00,,,0.00,Wunderground v.1.15,2013-07-21 17:20:00,
2013-07-21 12:30:00,82.3,65.5,29.80,SSE,164,2.0,2.0,57,0.00,,,0.00,Wunderground v.1.15,2013-07-21 17:30:00,
2013-07-21 12:40:00,82.9,67.6,29.79,South,177,2.0,7.0,60,0.00,,,0.00,Wunderground v.1.15,2013-07-21 17:40:00,
2013-07-21 12:50:00,83.8,65.9,29.79,ESE,104,3.0,7.0,55,0.00,,,0.00,Wunderground v.1.15,2013-07-21 17:50:00,
2013-07-21 13:00:00,84.0,66.1,29.79,SSE,164,2.0,7.0,55,0.00,,,0.00,Wunderground v.1.15,2013-07-21 18:00:00,
2013-07-21 13:10:00,84.1,67.7,29.78,ESE,114,4.0,7.0,58,0.00,,,0.00,Wunderground v.1.15,2013-07-21 18:10:00,
2013-07-21 13:15:00,84.3,66.4,29.78,SE,125,3.0,7.0,55,0.00,,,0.00,Wunderground v.1.15,2013-07-21 18:15:00,
2013-07-21 13:20:00,84.3,64.8,29.78,SSE,164,3.0,7.0,52,0.00,,,0.00,Wunderground v.1.15,2013-07-21 18:20:00,
2013-07-21 13:30:00,84.5,68.1,29.78,East,93,3.0,3.0,58,0.00,,,0.00,Wunderground v.1.15,2013-07-21 18:30:00,
2013-07-21 13:40:00,84.4,64.9,29.77,East,98,3.0,7.0,52,0.00,,,0.00,Wunderground v.1.15,2013-07-21 18:40:00,
2013-07-21 13:50:00,85.0,65.4,29.77,ESE,118,3.0,3.0,52,0.00,,,0.00,Wunderground v.1.15,2013-07-21 18:50:00,
2013-07-21 14:00:00,85.3,67.3,29.76,SE,126,3.0,3.0,55,0.00,,,0.00,Wunderground v.1.15,2013-07-21 19:00:00,
2013-07-21 14:05:00,85.4,65.2,29.76,East,91,3.0,6.0,51,0.00,,,0.00,Wunderground v.1.15,2013-07-21 19:05:00,
2013-07-21 14:15:00,85.5,65.9,29.76,SE,142,3.0,7.0,52,0.00,,,0.00,Wunderground v.1.15,2013-07-21 19:15:00,
2013-07-21 14:20:00,86.0,65.8,29.76,ESE,115,4.0,7.0,51,0.00,,,0.00,Wunderground v.1.15,2013-07-21 19:20:00,
2013-07-21 14:30:00,86.0,64.6,29.75,SSE,148,3.0,3.0,49,0.00,,,0.00,Wunderground v.1.15,2013-07-21 19:30:00,
2013-07-21 14:40:00,86.3,63.1,29.75,East,98,4.0,7.0,46,0.00,,,0.00,Wunderground v.1.15,2013-07-21 19:40:00,
2013-07-21 14:45:00,86.1,65.3,29.75,ESE,121,4.0,7.0,50,0.00,,,0.00,Wunderground v.1.15,2013-07-21 19:45:00,
2013-07-21 14:55:00,86.1,64.1,29.74,ESE,119,3.0,7.0,48,0.00,,,0.00,Wunderground v.1.15,2013-07-21 19:55:00,
2013-07-21 15:00:00,86.0,64.0,29.74,ESE,107,2.0,7.0,48,0.00,,,0.00,Wunderground v.1.15,2013-07-21 20:00:00,
2013-07-21 15:10:00,85.4,64.1,29.74,ENE,69,3.0,7.0,49,0.00,,,0.00,Wunderground v.1.15,2013-07-21 20:10:00,
2013-07-21 15:20:00,86.7,65.8,29.74,ESE,123,3.0,7.0,50,0.00,,,0.00,Wunderground v.1.15,2013-07-21 20:20:00,
2013-07-21 15:30:00,86.4,65.6,29.74,East,98,3.0,3.0,50,0.00,,,0.00,Wunderground v.1.15,2013-07-21 20:30:00,
2013-07-21 15:35:00,87.0,66.1,29.74,SE,142,3.0,7.0,50,0.00,,,0.00,Wunderground v.1.15,2013-07-21 20:35:00,
2013-07-21 15:45:00,87.4,65.3,29.74,South,171,3.0,5.0,48,0.00,,,0.00,Wunderground v.1.15,2013-07-21 20:45:00,
2013-07-21 15:50:00,87.5,66.6,29.74,SSE,150,3.0,7.0,50,0.00,,,0.00,Wunderground v.1.15,2013-07-21 20:50:00,
2013-07-21 16:00:00,88.0,68.2,29.74,SSE,166,3.0,3.0,52,0.00,,,0.00,Wunderground v.1.15,2013-07-21 21:00:00,
2013-07-21 16:10:00,87.5,64.2,29.73,SSE,161,4.0,4.0,46,0.00,,,0.00,Wunderground v.1.15,2013-07-21 21:10:00,
2013-07-21 16:20:00,87.5,66.6,29.73,SE,142,2.0,7.0,50,0.00,,,0.00,Wunderground v.1.15,2013-07-21 21:20:00,
2013-07-21 16:25:00,87.9,63.9,29.73,SE,146,2.0,7.0,45,0.00,,,0.00,Wunderground v.1.15,2013-07-21 21:25:00,
2013-07-21 16:35:00,87.8,65.7,29.73,SSE,158,3.0,7.0,48,0.00,,,0.00,Wunderground v.1.15,2013-07-21 21:35:00,
2013-07-21 16:40:00,87.9,64.5,29.73,South,172,3.0,3.0,46,0.00,,,0.00,Wunderground v.1.15,2013-07-21 21:40:00,
2013-07-21 16:50:00,87.9,66.4,29.73,SSE,167,1.0,7.0,49,0.00,,,0.00,Wunderground v.1.15,2013-07-21 21:50:00,
2013-07-21 17:00:00,86.8,68.2,29.73,SE,124,1.0,1.0,54,0.00,,,0.00,Wunderground v.1.15,2013-07-21 22:00:00,
2013-07-21 17:10:00,86.1,66.4,29.72,SE,124,1.0,1.0,52,0.00,,,0.00,Wunderground v.1.15,2013-07-21 22:10:00,
2013-07-21 17:20:00,86.1,69.1,29.73,SE,132,1.0,1.0,57,0.00,,,0.00,Wunderground v.1.15,2013-07-21 22:20:00,
2013-07-21 17:25:00,86.0,68.5,29.73,SE,132,1.0,7.0,56,0.00,,,0.00,Wunderground v.1.15,2013-07-21 22:25:00,
2013-07-21 17:30:00,86.3,67.2,29.72,SSE,151,1.0,7.0,53,0.00,,,0.00,Wunderground v.1.15,2013-07-21 22:30:00,
2013-07-21 17:40:00,86.7,66.4,29.72,SE,143,1.0,1.0,51,0.00,,,0.00,Wunderground v.1.15,2013-07-21 22:40:00,
2013-07-21 17:50:00,86.9,68.3,29.72,SE,127,1.0,1.0,54,0.00,,,0.00,Wunderground v.1.15,2013-07-21 22:50:00,
2013-07-21 18:00:00,86.4,66.7,29.72,SE,144,2.0,2.0,52,0.00,,,0.00,Wunderground v.1.15,2013-07-21 23:00:00,
2013-07-21 18:10:00,86.7,68.1,29.72,South,184,1.0,1.0,54,0.00,,,0.00,Wunderground v.1.15,2013-07-21 23:10:00,
2013-07-21 18:15:00,87.0,67.8,29.72,SSE,148,1.0,4.0,53,0.00,,,0.00,Wunderground v.1.15,2013-07-21 23:15:00,
2013-07-21 18:25:00,87.0,68.3,29.72,SE,130,1.0,2.0,54,0.00,,,0.00,Wunderground v.1.15,2013-07-21 23:25:00,
2013-07-21 18:35:00,86.8,67.6,29.71,East,94,1.0,6.0,53,0.00,,,0.00,Wunderground v.1.15,2013-07-21 23:35:00,
2013-07-21 18:45:00,86.2,67.1,29.71,SE,124,2.0,4.0,53,0.00,,,0.00,Wunderground v.1.15,2013-07-21 23:45:00,
2013-07-21 18:50:00,86.1,67.0,29.71,ESE,122,2.0,2.0,53,0.00,,,0.00,Wunderground v.1.15,2013-07-21 23:50:00,
2013-07-21 19:00:00,86.0,66.9,29.71,ESE,122,0.0,4.0,53,0.00,,,0.00,Wunderground v.1.15,2013-07-22 00:00:00,
2013-07-21 19:05:00,86.0,66.9,29.71,ESE,119,0.0,4.0,53,0.00,,,0.00,Wunderground v.1.15,2013-07-22 00:05:00,
2013-07-21 19:10:00,86.0,67.4,29.71,ESE,117,0.0,4.0,54,0.00,,,0.00,Wunderground v.1.15,2013-07-22 00:10:00,
2013-07-21 19:20:00,85.9,67.9,29.71,ESE,117,0.0,4.0,55,0.00,,,0.00,Wunderground v.1.15,2013-07-22 00:20:00,
2013-07-21 19:30:00,84.8,67.9,29.71,ESE,117,1.0,4.0,57,0.00,,,0.00,Wunderground v.1.15,2013-07-22 00:30:00,
2013-07-21 19:40:00,84.0,67.1,29.70,ESE,117,0.0,4.0,57,0.00,,,0.00,Wunderground v.1.15,2013-07-22 00:40:00,
2013-07-21 19:50:00,83.6,67.3,29.71,SE,128,0.0,4.0,58,0.00,,,0.00,Wunderground v.1.15,2013-07-22 00:50:00,
2013-07-21 20:00:00,83.0,67.7,29.70,SE,128,0.0,4.0,60,0.00,,,0.00,Wunderground v.1.15,2013-07-22 01:00:00,
2013-07-21 20:10:00,82.1,66.4,29.70,SE,128,0.0,4.0,59,0.00,,,0.00,Wunderground v.1.15,2013-07-22 01:10:00,
2013-07-21 20:20:00,81.0,65.8,29.71,SE,128,0.0,4.0,60,0.00,,,0.00,Wunderground v.1.15,2013-07-22 01:20:00,
2013-07-21 20:30:00,79.5,65.8,29.71,SE,128,1.0,1.0,63,0.00,,,0.00,Wunderground v.1.15,2013-07-22 01:30:00,
2013-07-21 20:40:00,78.2,65.5,29.71,SE,128,0.0,4.0,65,0.00,,,0.00,Wunderground v.1.15,2013-07-22 01:40:00,
2013-07-21 20:45:00,77.4,65.1,29.71,SE,128,0.0,4.0,66,0.00,,,0.00,Wunderground v.1.15,2013-07-22 01:45:00,
2013-07-21 20:50:00,76.8,65.0,29.71,SE,128,0.0,4.0,67,0.00,,,0.00,Wunderground v.1.15,2013-07-22 01:50:00,
2013-07-21 21:00:00,75.7,65.2,29.71,SE,128,1.0,4.0,70,0.00,,,0.00,Wunderground v.1.15,2013-07-22 02:00:00,
2013-07-21 21:10:00,75.0,65.4,29.71,SE,128,1.0,4.0,72,0.00,,,0.00,Wunderground v.1.15,2013-07-22 02:10:00,
2013-07-21 21:20:00,74.6,65.4,29.72,SE,128,2.0,4.0,73,0.00,,,0.00,Wunderground v.1.15,2013-07-22 02:20:00,
2013-07-21 21:25:00,74.2,65.0,29.72,SE,128,2.0,4.0,73,0.00,,,0.00,Wunderground v.1.15,2013-07-22 02:25:00,
2013-07-21 21:35:00,73.6,65.2,29.73,SE,128,2.0,4.0,75,0.00,,,0.00,Wunderground v.1.15,2013-07-22 02:35:00,
2013-07-21 21:40:00,73.2,64.8,29.73,SE,128,2.0,2.0,75,0.00,,,0.00,Wunderground v.1.15,2013-07-22 02:40:00,
2013-07-21 21:50:00,72.7,64.7,29.73,SE,128,2.0,4.0,76,0.00,,,0.00,Wunderground v.1.15,2013-07-22 02:50:00,
2013-07-21 22:00:00,72.1,64.5,29.73,SE,128,2.0,2.0,77,0.00,,,0.00,Wunderground v.1.15,2013-07-22 03:00:00,
2013-07-21 22:05:00,72.0,64.4,29.73,SE,128,1.0,4.0,77,0.00,,,0.00,Wunderground v.1.15,2013-07-22 03:05:00,
2013-07-21 22:15:00,72.1,64.5,29.74,SE,128,0.0,4.0,77,0.00,,,0.00,Wunderground v.1.15,2013-07-22 03:15:00,
2013-07-21 22:20:00,72.0,64.4,29.74,SE,128,0.0,4.0,77,0.00,,,0.00,Wunderground v.1.15,2013-07-22 03:20:00,
2013-07-21 22:30:00,71.8,64.2,29.74,SE,128,0.0,4.0,77,0.00,,,0.00,Wunderground v.1.15,2013-07-22 03:30:00,
2013-07-21 22:40:00,71.4,64.2,29.74,SE,128,0.0,4.0,78,0.00,,,0.00,Wunderground v.1.15,2013-07-22 03:40:00,
2013-07-21 22:50:00,71.3,64.4,29.74,SE,128,0.0,4.0,79,0.00,,,0.00,Wunderground v.1.15,2013-07-22 03:50:00,
2013-07-21 22:55:00,71.2,64.4,29.74,SE,128,0.0,4.0,79,0.00,,,0.00,Wunderground v.1.15,2013-07-22 03:55:00,
2013-07-21 23:00:00,71.0,64.5,29.74,SE,128,0.0,4.0,80,0.00,,,0.00,Wunderground v.1.15,2013-07-22 04:00:00,
2013-07-21 23:05:00,70.9,64.4,29.75,SE,128,0.0,4.0,80,0.00,,,0.00,Wunderground v.1.15,2013-07-22 04:05:00,
2013-07-21 23:10:00,70.8,64.7,29.75,SE,128,0.0,4.0,81,0.00,,,0.00,Wunderground v.1.15,2013-07-22 04:10:00,
2013-07-21 23:15:00,70.6,64.5,29.75,SE,128,0.0,4.0,81,0.00,,,0.00,Wunderground v.1.15,2013-07-22 04:15:00,
2013-07-21 23:20:00,70.5,64.4,29.74,SE,128,0.0,4.0,81,0.00,,,0.00,Wunderground v.1.15,2013-07-22 04:20:00,
2013-07-21 23:30:00,70.3,64.5,29.74,SE,128,0.0,4.0,82,0.00,,,0.00,Wunderground v.1.15,2013-07-22 04:30:00,
2013-07-21 23:35:00,70.3,64.9,29.74,SE,128,0.0,4.0,83,0.00,,,0.00,Wunderground v.1.15,2013-07-22 04:35:00,
2013-07-21 23:45:00,70.2,64.8,29.74,SE,128,0.0,4.0,83,0.00,,,0.00,Wunderground v.1.15,2013-07-22 04:45:00,
2013-07-21 23:50:00,70.0,64.6,29.74,SE,128,0.0,4.0,83,0.00,,,0.00,Wunderground v.1.15,2013-07-22 04:50:00,